sensor_id;sensor_type;location;lat;lon;timestamp;P1;durP1;ratioP1;P2;durP2;ratioP2
1366;SDS011;16877;48.810;9.282;2023-06-10T00:01:05;6.13;;;5.53;;
1366;SDS011;16877;48.810;9.282;2023-06-10T00:03:33;6.10;;;5.50;;
1366;SDS011;16877;48.810;9.282;2023-06-10T00:06:01;6.13;;;5.63;;
1366;SDS011;16877;48.810;9.282;2023-06-10T00:08:29;6.63;;;6.03;;
1366;SDS011;16877;48.810;9.282;2023-06-10T00:10:58;6.57;;;5.97;;
1366;SDS011;16877;48.810;9.282;2023-06-10T00:13:25;6.10;;;5.57;;
1366;SDS011;16877;48.810;9.282;2023-06-10T00:15:53;5.97;;;5.37;;
1366;SDS011;16877;48.810;9.282;2023-06-10T00:18:30;6.23;;;5.73;;
1366;SDS011;16877;48.810;9.282;2023-06-10T00:20:57;6.40;;;5.80;;
1366;SDS011;16877;48.810;9.282;2023-06-10T00:23:29;6.77;;;5.83;;
1366;SDS011;16877;48.810;9.282;2023-06-10T00:25:59;6.03;;;5.43;;
1366;SDS011;16877;48.810;9.282;2023-06-10T00:28:26;6.10;;;5.50;;
1366;SDS011;16877;48.810;9.282;2023-06-10T00:30:54;6.97;;;5.37;;
1366;SDS011;16877;48.810;9.282;2023-06-10T00:33:22;6.30;;;5.27;;
1366;SDS011;16877;48.810;9.282;2023-06-10T00:35:54;7.40;;;5.23;;
1366;SDS011;16877;48.810;9.282;2023-06-10T00:38:22;6.80;;;6.20;;
1366;SDS011;16877;48.810;9.282;2023-06-10T00:40:49;6.80;;;6.10;;
1366;SDS011;16877;48.810;9.282;2023-06-10T00:43:18;6.87;;;6.20;;
1366;SDS011;16877;48.810;9.282;2023-06-10T00:45:46;6.20;;;5.60;;
1366;SDS011;16877;48.810;9.282;2023-06-10T00:48:13;6.27;;;5.67;;
1366;SDS011;16877;48.810;9.282;2023-06-10T00:50:41;6.70;;;6.10;;
1366;SDS011;16877;48.810;9.282;2023-06-10T00:53:08;6.20;;;5.60;;
1366;SDS011;16877;48.810;9.282;2023-06-10T00:55:37;6.60;;;6.00;;
1366;SDS011;16877;48.810;9.282;2023-06-10T00:58:05;6.47;;;5.87;;
1366;SDS011;16877;48.810;9.282;2023-06-10T01:00:34;6.37;;;5.77;;
1366;SDS011;16877;48.810;9.282;2023-06-10T01:03:02;7.13;;;6.43;;
1366;SDS011;16877;48.810;9.282;2023-06-10T01:05:32;6.03;;;5.53;;
1366;SDS011;16877;48.810;9.282;2023-06-10T01:08:02;5.97;;;5.37;;
1366;SDS011;16877;48.810;9.282;2023-06-10T01:10:33;6.10;;;5.60;;
1366;SDS011;16877;48.810;9.282;2023-06-10T01:13:10;6.00;;;5.50;;
1366;SDS011;16877;48.810;9.282;2023-06-10T01:15:44;6.50;;;5.90;;
1366;SDS011;16877;48.810;9.282;2023-06-10T01:18:12;6.50;;;5.53;;
1366;SDS011;16877;48.810;9.282;2023-06-10T01:20:40;6.20;;;5.60;;
1366;SDS011;16877;48.810;9.282;2023-06-10T01:23:27;5.77;;;5.27;;
1366;SDS011;16877;48.810;9.282;2023-06-10T01:25:57;6.13;;;5.63;;
1366;SDS011;16877;48.810;9.282;2023-06-10T01:28:31;6.53;;;5.90;;
1366;SDS011;16877;48.810;9.282;2023-06-10T01:31:06;6.50;;;5.90;;
1366;SDS011;16877;48.810;9.282;2023-06-10T01:33:41;5.77;;;5.27;;
1366;SDS011;16877;48.810;9.282;2023-06-10T01:36:11;7.17;;;5.37;;
1366;SDS011;16877;48.810;9.282;2023-06-10T01:38:42;5.80;;;5.30;;
1366;SDS011;16877;48.810;9.282;2023-06-10T01:41:11;6.87;;;6.03;;
1366;SDS011;16877;48.810;9.282;2023-06-10T01:43:40;5.83;;;5.33;;
1366;SDS011;16877;48.810;9.282;2023-06-10T01:46:10;5.40;;;4.90;;
1366;SDS011;16877;48.810;9.282;2023-06-10T01:48:40;6.30;;;5.57;;
1366;SDS011;16877;48.810;9.282;2023-06-10T01:51:08;5.33;;;4.83;;
1366;SDS011;16877;48.810;9.282;2023-06-10T01:53:51;6.43;;;5.83;;
1366;SDS011;16877;48.810;9.282;2023-06-10T01:56:19;6.27;;;5.67;;
1366;SDS011;16877;48.810;9.282;2023-06-10T01:58:46;5.80;;;5.30;;
1366;SDS011;16877;48.810;9.282;2023-06-10T02:01:20;6.37;;;5.77;;
1366;SDS011;16877;48.810;9.282;2023-06-10T02:03:51;6.30;;;5.67;;
1366;SDS011;16877;48.810;9.282;2023-06-10T02:06:18;5.97;;;5.47;;
1366;SDS011;16877;48.810;9.282;2023-06-10T02:08:46;6.47;;;5.87;;
1366;SDS011;16877;48.810;9.282;2023-06-10T02:11:15;5.90;;;5.40;;
1366;SDS011;16877;48.810;9.282;2023-06-10T02:13:47;5.43;;;5.03;;
1366;SDS011;16877;48.810;9.282;2023-06-10T02:16:18;6.40;;;5.87;;
1366;SDS011;16877;48.810;9.282;2023-06-10T02:18:46;5.20;;;4.80;;
1366;SDS011;16877;48.810;9.282;2023-06-10T02:21:13;6.57;;;5.87;;
1366;SDS011;16877;48.810;9.282;2023-06-10T02:23:41;5.30;;;4.80;;
1366;SDS011;16877;48.810;9.282;2023-06-10T02:26:08;5.70;;;5.10;;
1366;SDS011;16877;48.810;9.282;2023-06-10T02:28:39;7.20;;;5.63;;
1366;SDS011;16877;48.810;9.282;2023-06-10T02:31:23;5.83;;;5.23;;
1366;SDS011;16877;48.810;9.282;2023-06-10T02:33:51;5.00;;;4.47;;
1366;SDS011;16877;48.810;9.282;2023-06-10T02:36:33;4.83;;;4.33;;
1366;SDS011;16877;48.810;9.282;2023-06-10T02:39:02;7.20;;;4.80;;
1366;SDS011;16877;48.810;9.282;2023-06-10T02:41:29;6.23;;;5.23;;
1366;SDS011;16877;48.810;9.282;2023-06-10T02:43:58;5.90;;;5.40;;
1366;SDS011;16877;48.810;9.282;2023-06-10T02:46:25;5.33;;;4.83;;
1366;SDS011;16877;48.810;9.282;2023-06-10T02:48:55;4.83;;;4.33;;
1366;SDS011;16877;48.810;9.282;2023-06-10T02:51:37;4.77;;;4.33;;
1366;SDS011;16877;48.810;9.282;2023-06-10T02:54:04;5.23;;;4.77;;
1366;SDS011;16877;48.810;9.282;2023-06-10T02:56:31;6.47;;;5.80;;
1366;SDS011;16877;48.810;9.282;2023-06-10T02:59:01;6.30;;;5.70;;
1366;SDS011;16877;48.810;9.282;2023-06-10T03:01:29;4.80;;;4.33;;
1366;SDS011;16877;48.810;9.282;2023-06-10T03:03:57;5.73;;;5.23;;
1366;SDS011;16877;48.810;9.282;2023-06-10T03:06:24;5.80;;;5.20;;
1366;SDS011;16877;48.810;9.282;2023-06-10T03:08:54;6.33;;;5.73;;
1366;SDS011;16877;48.810;9.282;2023-06-10T03:11:26;5.57;;;5.07;;
1366;SDS011;16877;48.810;9.282;2023-06-10T03:13:56;5.03;;;4.53;;
1366;SDS011;16877;48.810;9.282;2023-06-10T03:16:26;6.03;;;5.23;;
1366;SDS011;16877;48.810;9.282;2023-06-10T03:18:55;6.30;;;5.70;;
1366;SDS011;16877;48.810;9.282;2023-06-10T03:21:23;6.93;;;5.60;;
1366;SDS011;16877;48.810;9.282;2023-06-10T03:23:50;6.00;;;5.47;;
1366;SDS011;16877;48.810;9.282;2023-06-10T03:26:18;5.80;;;5.30;;
1366;SDS011;16877;48.810;9.282;2023-06-10T03:28:51;6.30;;;5.73;;
1366;SDS011;16877;48.810;9.282;2023-06-10T03:31:18;5.37;;;4.87;;
1366;SDS011;16877;48.810;9.282;2023-06-10T03:33:47;5.33;;;4.83;;
1366;SDS011;16877;48.810;9.282;2023-06-10T03:36:14;5.50;;;5.00;;
1366;SDS011;16877;48.810;9.282;2023-06-10T03:38:42;6.67;;;6.00;;
1366;SDS011;16877;48.810;9.282;2023-06-10T03:41:09;5.70;;;5.20;;
1366;SDS011;16877;48.810;9.282;2023-06-10T03:43:37;6.00;;;5.50;;
1366;SDS011;16877;48.810;9.282;2023-06-10T03:46:05;5.63;;;5.13;;
1366;SDS011;16877;48.810;9.282;2023-06-10T03:48:33;6.10;;;5.50;;
1366;SDS011;16877;48.810;9.282;2023-06-10T03:51:04;5.53;;;5.03;;
1366;SDS011;16877;48.810;9.282;2023-06-10T03:53:31;6.30;;;5.60;;
1366;SDS011;16877;48.810;9.282;2023-06-10T03:56:03;5.57;;;5.07;;
1366;SDS011;16877;48.810;9.282;2023-06-10T03:58:33;6.03;;;5.40;;
1366;SDS011;16877;48.810;9.282;2023-06-10T04:01:01;6.10;;;5.60;;
1366;SDS011;16877;48.810;9.282;2023-06-10T04:03:32;5.80;;;5.30;;
1366;SDS011;16877;48.810;9.282;2023-06-10T04:06:00;6.40;;;5.80;;
1366;SDS011;16877;48.810;9.282;2023-06-10T04:08:31;6.27;;;5.67;;
1366;SDS011;16877;48.810;9.282;2023-06-10T04:10:58;5.80;;;5.30;;
1366;SDS011;16877;48.810;9.282;2023-06-10T04:13:26;6.03;;;5.43;;
1366;SDS011;16877;48.810;9.282;2023-06-10T04:15:53;6.13;;;5.50;;
1366;SDS011;16877;48.810;9.282;2023-06-10T04:18:20;5.47;;;4.97;;
1366;SDS011;16877;48.810;9.282;2023-06-10T04:20:48;5.90;;;5.33;;
1366;SDS011;16877;48.810;9.282;2023-06-10T04:23:15;6.17;;;5.57;;
1366;SDS011;16877;48.810;9.282;2023-06-10T04:25:45;6.07;;;5.57;;
1366;SDS011;16877;48.810;9.282;2023-06-10T04:28:12;5.87;;;5.37;;
1366;SDS011;16877;48.810;9.282;2023-06-10T04:30:40;5.93;;;5.43;;
1366;SDS011;16877;48.810;9.282;2023-06-10T04:33:11;6.13;;;5.53;;
1366;SDS011;16877;48.810;9.282;2023-06-10T04:35:38;6.30;;;5.70;;
1366;SDS011;16877;48.810;9.282;2023-06-10T04:38:06;6.17;;;5.60;;
1366;SDS011;16877;48.810;9.282;2023-06-10T04:40:34;6.17;;;5.67;;
1366;SDS011;16877;48.810;9.282;2023-06-10T04:43:03;5.47;;;5.00;;
1366;SDS011;16877;48.810;9.282;2023-06-10T04:45:30;8.80;;;5.17;;
1366;SDS011;16877;48.810;9.282;2023-06-10T04:47:58;6.17;;;5.63;;
1366;SDS011;16877;48.810;9.282;2023-06-10T04:50:26;5.73;;;5.23;;
1366;SDS011;16877;48.810;9.282;2023-06-10T04:52:55;5.83;;;5.33;;
1366;SDS011;16877;48.810;9.282;2023-06-10T04:55:23;5.53;;;5.00;;
1366;SDS011;16877;48.810;9.282;2023-06-10T04:57:52;6.50;;;5.87;;
1366;SDS011;16877;48.810;9.282;2023-06-10T05:00:21;6.17;;;5.57;;
1366;SDS011;16877;48.810;9.282;2023-06-10T05:02:49;5.50;;;4.70;;
1366;SDS011;16877;48.810;9.282;2023-06-10T05:05:16;5.77;;;5.27;;
1366;SDS011;16877;48.810;9.282;2023-06-10T05:07:47;4.83;;;4.43;;
1366;SDS011;16877;48.810;9.282;2023-06-10T05:10:14;6.10;;;5.03;;
1366;SDS011;16877;48.810;9.282;2023-06-10T05:12:42;6.70;;;5.70;;
1366;SDS011;16877;48.810;9.282;2023-06-10T05:15:10;5.53;;;5.03;;
1366;SDS011;16877;48.810;9.282;2023-06-10T05:17:40;5.60;;;5.10;;
1366;SDS011;16877;48.810;9.282;2023-06-10T05:20:09;5.30;;;4.80;;
1366;SDS011;16877;48.810;9.282;2023-06-10T05:22:38;5.07;;;4.67;;
1366;SDS011;16877;48.810;9.282;2023-06-10T05:25:06;6.67;;;5.73;;
1366;SDS011;16877;48.810;9.282;2023-06-10T05:27:34;4.87;;;4.37;;
1366;SDS011;16877;48.810;9.282;2023-06-10T05:30:03;5.17;;;4.67;;
1366;SDS011;16877;48.810;9.282;2023-06-10T05:32:32;6.70;;;5.63;;
1366;SDS011;16877;48.810;9.282;2023-06-10T05:35:03;5.13;;;4.63;;
1366;SDS011;16877;48.810;9.282;2023-06-10T05:37:33;5.27;;;4.77;;
1366;SDS011;16877;48.810;9.282;2023-06-10T05:40:00;5.70;;;4.90;;
1366;SDS011;16877;48.810;9.282;2023-06-10T05:42:27;5.00;;;4.50;;
1366;SDS011;16877;48.810;9.282;2023-06-10T05:44:55;5.03;;;4.53;;
1366;SDS011;16877;48.810;9.282;2023-06-10T05:47:22;4.30;;;3.90;;
1366;SDS011;16877;48.810;9.282;2023-06-10T05:49:50;5.20;;;4.70;;
1366;SDS011;16877;48.810;9.282;2023-06-10T05:52:19;4.93;;;4.47;;
1366;SDS011;16877;48.810;9.282;2023-06-10T05:54:46;4.83;;;4.43;;
1366;SDS011;16877;48.810;9.282;2023-06-10T05:57:14;5.20;;;4.70;;
1366;SDS011;16877;48.810;9.282;2023-06-10T05:59:41;5.20;;;4.70;;
1366;SDS011;16877;48.810;9.282;2023-06-10T06:02:09;5.07;;;4.67;;
1366;SDS011;16877;48.810;9.282;2023-06-10T06:04:38;5.10;;;4.60;;
1366;SDS011;16877;48.810;9.282;2023-06-10T06:07:10;5.40;;;4.90;;
1366;SDS011;16877;48.810;9.282;2023-06-10T06:09:39;4.50;;;4.10;;
1366;SDS011;16877;48.810;9.282;2023-06-10T06:12:09;4.30;;;3.90;;
1366;SDS011;16877;48.810;9.282;2023-06-10T06:14:37;4.60;;;4.20;;
1366;SDS011;16877;48.810;9.282;2023-06-10T06:17:05;4.73;;;4.23;;
1366;SDS011;16877;48.810;9.282;2023-06-10T06:19:32;4.37;;;3.97;;
1366;SDS011;16877;48.810;9.282;2023-06-10T06:22:00;4.60;;;4.20;;
1366;SDS011;16877;48.810;9.282;2023-06-10T06:24:28;5.53;;;3.97;;
1366;SDS011;16877;48.810;9.282;2023-06-10T06:26:57;5.00;;;4.50;;
1366;SDS011;16877;48.810;9.282;2023-06-10T06:29:25;4.83;;;4.43;;
1366;SDS011;16877;48.810;9.282;2023-06-10T06:31:55;4.47;;;4.07;;
1366;SDS011;16877;48.810;9.282;2023-06-10T06:34:22;4.77;;;4.37;;
1366;SDS011;16877;48.810;9.282;2023-06-10T06:36:49;4.57;;;4.17;;
1366;SDS011;16877;48.810;9.282;2023-06-10T06:39:17;4.57;;;4.17;;
1366;SDS011;16877;48.810;9.282;2023-06-10T06:41:44;5.00;;;4.50;;
1366;SDS011;16877;48.810;9.282;2023-06-10T06:44:13;4.53;;;4.07;;
1366;SDS011;16877;48.810;9.282;2023-06-10T06:46:41;6.17;;;4.50;;
1366;SDS011;16877;48.810;9.282;2023-06-10T06:49:08;4.70;;;4.30;;
1366;SDS011;16877;48.810;9.282;2023-06-10T06:51:36;5.00;;;4.30;;
1366;SDS011;16877;48.810;9.282;2023-06-10T06:54:04;5.10;;;4.60;;
1366;SDS011;16877;48.810;9.282;2023-06-10T06:56:31;5.50;;;5.00;;
1366;SDS011;16877;48.810;9.282;2023-06-10T06:58:58;4.87;;;4.37;;
1366;SDS011;16877;48.810;9.282;2023-06-10T07:01:28;5.70;;;5.07;;
1366;SDS011;16877;48.810;9.282;2023-06-10T07:03:55;4.07;;;3.67;;
1366;SDS011;16877;48.810;9.282;2023-06-10T07:06:38;4.93;;;4.43;;
1366;SDS011;16877;48.810;9.282;2023-06-10T07:09:07;5.17;;;4.67;;
1366;SDS011;16877;48.810;9.282;2023-06-10T07:11:34;4.43;;;4.03;;
1366;SDS011;16877;48.810;9.282;2023-06-10T07:14:02;4.87;;;4.37;;
1366;SDS011;16877;48.810;9.282;2023-06-10T07:16:31;5.70;;;4.53;;
1366;SDS011;16877;48.810;9.282;2023-06-10T07:18:58;5.20;;;4.20;;
1366;SDS011;16877;48.810;9.282;2023-06-10T07:21:26;4.77;;;4.33;;
1366;SDS011;16877;48.810;9.282;2023-06-10T07:23:54;4.30;;;3.90;;
1366;SDS011;16877;48.810;9.282;2023-06-10T07:26:26;5.30;;;4.80;;
1366;SDS011;16877;48.810;9.282;2023-06-10T07:28:53;5.87;;;4.33;;
1366;SDS011;16877;48.810;9.282;2023-06-10T07:31:21;5.37;;;4.87;;
1366;SDS011;16877;48.810;9.282;2023-06-10T07:34:04;4.67;;;4.27;;
1366;SDS011;16877;48.810;9.282;2023-06-10T07:36:36;4.87;;;4.37;;
1366;SDS011;16877;48.810;9.282;2023-06-10T07:39:04;4.67;;;4.27;;
1366;SDS011;16877;48.810;9.282;2023-06-10T07:41:33;4.67;;;4.27;;
1366;SDS011;16877;48.810;9.282;2023-06-10T07:44:00;4.70;;;4.30;;
1366;SDS011;16877;48.810;9.282;2023-06-10T07:46:28;5.37;;;4.87;;
1366;SDS011;16877;48.810;9.282;2023-06-10T07:48:55;4.30;;;3.90;;
1366;SDS011;16877;48.810;9.282;2023-06-10T07:51:24;4.90;;;4.40;;
1366;SDS011;16877;48.810;9.282;2023-06-10T07:53:52;4.50;;;4.10;;
1366;SDS011;16877;48.810;9.282;2023-06-10T07:56:19;4.13;;;3.73;;
1366;SDS011;16877;48.810;9.282;2023-06-10T07:58:47;4.70;;;4.07;;
1366;SDS011;16877;48.810;9.282;2023-06-10T08:01:15;4.87;;;4.40;;
1366;SDS011;16877;48.810;9.282;2023-06-10T08:03:43;5.00;;;4.50;;
1366;SDS011;16877;48.810;9.282;2023-06-10T08:06:10;4.00;;;3.70;;
1366;SDS011;16877;48.810;9.282;2023-06-10T08:08:39;4.93;;;4.43;;
1366;SDS011;16877;48.810;9.282;2023-06-10T08:11:10;3.80;;;3.50;;
1366;SDS011;16877;48.810;9.282;2023-06-10T08:13:38;4.70;;;4.30;;
1366;SDS011;16877;48.810;9.282;2023-06-10T08:16:05;4.30;;;3.90;;
1366;SDS011;16877;48.810;9.282;2023-06-10T08:18:33;4.40;;;4.00;;
1366;SDS011;16877;48.810;9.282;2023-06-10T08:21:01;5.27;;;4.77;;
1366;SDS011;16877;48.810;9.282;2023-06-10T08:23:29;4.40;;;4.00;;
1366;SDS011;16877;48.810;9.282;2023-06-10T08:25:58;4.80;;;4.33;;
1366;SDS011;16877;48.810;9.282;2023-06-10T08:28:25;4.80;;;4.30;;
1366;SDS011;16877;48.810;9.282;2023-06-10T08:30:53;4.47;;;4.07;;
1366;SDS011;16877;48.810;9.282;2023-06-10T08:33:20;4.57;;;4.13;;
1366;SDS011;16877;48.810;9.282;2023-06-10T08:35:48;5.13;;;4.63;;
1366;SDS011;16877;48.810;9.282;2023-06-10T08:38:15;4.37;;;3.97;;
1366;SDS011;16877;48.810;9.282;2023-06-10T08:40:43;4.80;;;4.30;;
1366;SDS011;16877;48.810;9.282;2023-06-10T08:43:14;5.43;;;4.93;;
1366;SDS011;16877;48.810;9.282;2023-06-10T08:45:46;5.13;;;4.63;;
1366;SDS011;16877;48.810;9.282;2023-06-10T08:48:16;4.53;;;4.13;;
1366;SDS011;16877;48.810;9.282;2023-06-10T08:50:46;4.60;;;4.20;;
1366;SDS011;16877;48.810;9.282;2023-06-10T08:53:17;5.07;;;4.57;;
1366;SDS011;16877;48.810;9.282;2023-06-10T08:55:46;5.30;;;4.80;;
1366;SDS011;16877;48.810;9.282;2023-06-10T08:58:19;4.97;;;4.17;;
1366;SDS011;16877;48.810;9.282;2023-06-10T09:00:47;5.07;;;4.40;;
1366;SDS011;16877;48.810;9.282;2023-06-10T09:03:14;5.23;;;4.60;;
1366;SDS011;16877;48.810;9.282;2023-06-10T09:05:45;4.93;;;4.53;;
1366;SDS011;16877;48.810;9.282;2023-06-10T09:08:13;4.73;;;4.03;;
1366;SDS011;16877;48.810;9.282;2023-06-10T09:10:42;4.60;;;4.10;;
1366;SDS011;16877;48.810;9.282;2023-06-10T09:13:10;5.37;;;4.20;;
1366;SDS011;16877;48.810;9.282;2023-06-10T09:15:42;4.77;;;4.37;;
1366;SDS011;16877;48.810;9.282;2023-06-10T09:18:11;4.63;;;4.23;;
1366;SDS011;16877;48.810;9.282;2023-06-10T09:20:38;5.00;;;4.50;;
1366;SDS011;16877;48.810;9.282;2023-06-10T09:23:06;4.67;;;4.27;;
1366;SDS011;16877;48.810;9.282;2023-06-10T09:25:34;4.63;;;4.10;;
1366;SDS011;16877;48.810;9.282;2023-06-10T09:28:03;5.00;;;4.50;;
1366;SDS011;16877;48.810;9.282;2023-06-10T09:30:38;4.47;;;3.93;;
1366;SDS011;16877;48.810;9.282;2023-06-10T09:33:11;4.70;;;4.30;;
1366;SDS011;16877;48.810;9.282;2023-06-10T09:35:44;4.70;;;4.30;;
1366;SDS011;16877;48.810;9.282;2023-06-10T09:38:13;5.77;;;4.80;;
1366;SDS011;16877;48.810;9.282;2023-06-10T09:40:48;5.43;;;4.83;;
1366;SDS011;16877;48.810;9.282;2023-06-10T09:43:16;5.00;;;4.53;;
1366;SDS011;16877;48.810;9.282;2023-06-10T09:45:44;5.20;;;4.70;;
1366;SDS011;16877;48.810;9.282;2023-06-10T09:48:15;4.60;;;4.00;;
1366;SDS011;16877;48.810;9.282;2023-06-10T09:50:43;5.10;;;4.60;;
1366;SDS011;16877;48.810;9.282;2023-06-10T09:53:11;5.00;;;4.53;;
1366;SDS011;16877;48.810;9.282;2023-06-10T09:55:40;5.17;;;4.70;;
1366;SDS011;16877;48.810;9.282;2023-06-10T09:58:08;5.10;;;4.60;;
1366;SDS011;16877;48.810;9.282;2023-06-10T10:00:36;5.73;;;5.23;;
1366;SDS011;16877;48.810;9.282;2023-06-10T10:03:04;5.90;;;5.10;;
1366;SDS011;16877;48.810;9.282;2023-06-10T10:05:33;6.27;;;5.77;;
1366;SDS011;16877;48.810;9.282;2023-06-10T10:08:01;5.17;;;4.77;;
1366;SDS011;16877;48.810;9.282;2023-06-10T10:10:30;5.97;;;5.47;;
1366;SDS011;16877;48.810;9.282;2023-06-10T10:12:57;6.23;;;5.50;;
1366;SDS011;16877;48.810;9.282;2023-06-10T10:15:28;7.20;;;6.37;;
1366;SDS011;16877;48.810;9.282;2023-06-10T10:17:58;5.17;;;4.67;;
1366;SDS011;16877;48.810;9.282;2023-06-10T10:20:33;5.00;;;4.50;;
1366;SDS011;16877;48.810;9.282;2023-06-10T10:23:03;5.03;;;4.50;;
1366;SDS011;16877;48.810;9.282;2023-06-10T10:25:39;5.33;;;4.83;;
1366;SDS011;16877;48.810;9.282;2023-06-10T10:28:10;5.10;;;4.60;;
1366;SDS011;16877;48.810;9.282;2023-06-10T10:30:40;4.60;;;4.20;;
1366;SDS011;16877;48.810;9.282;2023-06-10T10:33:09;4.83;;;4.07;;
1366;SDS011;16877;48.810;9.282;2023-06-10T10:35:45;5.07;;;4.57;;
1366;SDS011;16877;48.810;9.282;2023-06-10T10:38:13;4.77;;;4.37;;
1366;SDS011;16877;48.810;9.282;2023-06-10T10:40:41;4.90;;;4.50;;
1366;SDS011;16877;48.810;9.282;2023-06-10T10:43:10;4.30;;;3.90;;
1366;SDS011;16877;48.810;9.282;2023-06-10T10:45:39;5.03;;;4.10;;
1366;SDS011;16877;48.810;9.282;2023-06-10T10:48:07;4.57;;;4.13;;
1366;SDS011;16877;48.810;9.282;2023-06-10T10:50:37;4.27;;;3.87;;
1366;SDS011;16877;48.810;9.282;2023-06-10T10:53:05;4.53;;;4.07;;
1366;SDS011;16877;48.810;9.282;2023-06-10T10:55:33;4.50;;;4.10;;
1366;SDS011;16877;48.810;9.282;2023-06-10T10:58:02;4.43;;;3.87;;
1366;SDS011;16877;48.810;9.282;2023-06-10T11:00:31;6.40;;;4.50;;
1366;SDS011;16877;48.810;9.282;2023-06-10T11:03:00;8.10;;;4.03;;
1366;SDS011;16877;48.810;9.282;2023-06-10T11:05:35;4.50;;;4.10;;
1366;SDS011;16877;48.810;9.282;2023-06-10T11:08:04;5.17;;;4.67;;
1366;SDS011;16877;48.810;9.282;2023-06-10T11:10:34;5.10;;;4.50;;
1366;SDS011;16877;48.810;9.282;2023-06-10T11:13:06;4.67;;;4.27;;
1366;SDS011;16877;48.810;9.282;2023-06-10T11:15:37;5.60;;;4.33;;
1366;SDS011;16877;48.810;9.282;2023-06-10T11:18:12;4.70;;;4.30;;
1366;SDS011;16877;48.810;9.282;2023-06-10T11:20:44;5.10;;;4.60;;
1366;SDS011;16877;48.810;9.282;2023-06-10T11:23:26;4.03;;;3.63;;
1366;SDS011;16877;48.810;9.282;2023-06-10T11:26:15;4.35;;;3.95;;
1366;SDS011;16877;48.810;9.282;2023-06-10T11:29:05;4.65;;;4.22;;
1366;SDS011;16877;48.810;9.282;2023-06-10T11:31:40;4.20;;;3.80;;
1366;SDS011;16877;48.810;9.282;2023-06-10T11:34:26;7.05;;;4.45;;
1366;SDS011;16877;48.810;9.282;2023-06-10T11:36:54;4.57;;;4.15;;
1366;SDS011;16877;48.810;9.282;2023-06-10T11:39:24;4.90;;;4.40;;
1366;SDS011;16877;48.810;9.282;2023-06-10T11:41:56;4.38;;;3.97;;
1366;SDS011;16877;48.810;9.282;2023-06-10T11:44:27;4.93;;;4.43;;
1366;SDS011;16877;48.810;9.282;2023-06-10T11:46:58;4.30;;;3.90;;
1366;SDS011;16877;48.810;9.282;2023-06-10T11:49:27;4.00;;;3.60;;
1366;SDS011;16877;48.810;9.282;2023-06-10T11:51:55;4.20;;;3.80;;
1366;SDS011;16877;48.810;9.282;2023-06-10T11:54:24;4.00;;;3.60;;
1366;SDS011;16877;48.810;9.282;2023-06-10T11:56:56;4.43;;;4.03;;
1366;SDS011;16877;48.810;9.282;2023-06-10T11:59:26;3.70;;;3.40;;
1366;SDS011;16877;48.810;9.282;2023-06-10T12:01:54;4.25;;;3.85;;
1366;SDS011;16877;48.810;9.282;2023-06-10T12:04:22;4.55;;;4.15;;
1366;SDS011;16877;48.810;9.282;2023-06-10T12:06:51;4.07;;;3.60;;
1366;SDS011;16877;48.810;9.282;2023-06-10T12:09:20;3.63;;;3.10;;
1366;SDS011;16877;48.810;9.282;2023-06-10T12:11:50;3.63;;;3.25;;
1366;SDS011;16877;48.810;9.282;2023-06-10T12:17:19;4.28;;;3.88;;
1366;SDS011;16877;48.810;9.282;2023-06-10T12:19:47;4.03;;;3.63;;
1366;SDS011;16877;48.810;9.282;2023-06-10T12:22:14;3.78;;;3.38;;
1366;SDS011;16877;48.810;9.282;2023-06-10T12:24:44;3.92;;;3.63;;
1366;SDS011;16877;48.810;9.282;2023-06-10T12:27:13;3.53;;;3.22;;
1366;SDS011;16877;48.810;9.282;2023-06-10T12:29:50;4.18;;;3.78;;
1366;SDS011;16877;48.810;9.282;2023-06-10T12:32:20;3.95;;;3.22;;
1366;SDS011;16877;48.810;9.282;2023-06-10T12:34:54;3.58;;;3.28;;
1366;SDS011;16877;48.810;9.282;2023-06-10T12:37:29;3.90;;;3.60;;
1366;SDS011;16877;48.810;9.282;2023-06-10T12:39:59;4.07;;;3.60;;
1366;SDS011;16877;48.810;9.282;2023-06-10T12:42:29;4.22;;;3.65;;
1366;SDS011;16877;48.810;9.282;2023-06-10T12:44:59;3.40;;;3.10;;
1366;SDS011;16877;48.810;9.282;2023-06-10T12:47:30;3.50;;;3.20;;
1366;SDS011;16877;48.810;9.282;2023-06-10T12:50:01;3.25;;;2.95;;
1366;SDS011;16877;48.810;9.282;2023-06-10T12:52:30;4.70;;;3.60;;
1366;SDS011;16877;48.810;9.282;2023-06-10T12:54:57;3.42;;;3.13;;
1366;SDS011;16877;48.810;9.282;2023-06-10T12:57:26;4.00;;;3.40;;
1366;SDS011;16877;48.810;9.282;2023-06-10T12:59:54;3.90;;;3.50;;
1366;SDS011;16877;48.810;9.282;2023-06-10T13:02:29;4.50;;;3.65;;
1366;SDS011;16877;48.810;9.282;2023-06-10T13:04:57;4.03;;;3.63;;
1366;SDS011;16877;48.810;9.282;2023-06-10T13:07:24;3.45;;;3.15;;
1366;SDS011;16877;48.810;9.282;2023-06-10T13:09:52;3.47;;;3.17;;
1366;SDS011;16877;48.810;9.282;2023-06-10T13:12:19;3.20;;;2.90;;
1366;SDS011;16877;48.810;9.282;2023-06-10T13:14:47;3.08;;;2.70;;
1366;SDS011;16877;48.810;9.282;2023-06-10T13:17:16;4.13;;;3.35;;
1366;SDS011;16877;48.810;9.282;2023-06-10T13:19:43;5.15;;;3.50;;
1366;SDS011;16877;48.810;9.282;2023-06-10T13:22:11;3.38;;;3.08;;
1366;SDS011;16877;48.810;9.282;2023-06-10T13:24:40;3.50;;;3.20;;
1366;SDS011;16877;48.810;9.282;2023-06-10T13:27:08;3.75;;;2.97;;
1366;SDS011;16877;48.810;9.282;2023-06-10T13:29:36;3.80;;;3.40;;
1366;SDS011;16877;48.810;9.282;2023-06-10T13:32:03;2.95;;;2.65;;
1366;SDS011;16877;48.810;9.282;2023-06-10T13:34:33;3.35;;;3.05;;
1366;SDS011;16877;48.810;9.282;2023-06-10T13:37:00;3.53;;;3.10;;
1366;SDS011;16877;48.810;9.282;2023-06-10T13:39:29;4.00;;;3.20;;
1366;SDS011;16877;48.810;9.282;2023-06-10T13:41:56;4.32;;;3.05;;
1366;SDS011;16877;48.810;9.282;2023-06-10T13:44:23;3.33;;;2.97;;
1366;SDS011;16877;48.810;9.282;2023-06-10T13:47:01;3.53;;;3.22;;
1366;SDS011;16877;48.810;9.282;2023-06-10T13:49:29;4.07;;;3.58;;
1366;SDS011;16877;48.810;9.282;2023-06-10T13:52:02;3.65;;;3.35;;
1366;SDS011;16877;48.810;9.282;2023-06-10T13:54:30;3.50;;;3.20;;
1366;SDS011;16877;48.810;9.282;2023-06-10T13:56:58;3.63;;;3.33;;
1366;SDS011;16877;48.810;9.282;2023-06-10T13:59:25;3.15;;;2.85;;
1366;SDS011;16877;48.810;9.282;2023-06-10T14:01:53;3.38;;;3.00;;
1366;SDS011;16877;48.810;9.282;2023-06-10T14:04:20;3.58;;;3.28;;
1366;SDS011;16877;48.810;9.282;2023-06-10T14:06:48;3.40;;;3.10;;
1366;SDS011;16877;48.810;9.282;2023-06-10T14:09:17;3.50;;;3.20;;
1366;SDS011;16877;48.810;9.282;2023-06-10T14:11:49;3.50;;;3.10;;
1366;SDS011;16877;48.810;9.282;2023-06-10T14:14:19;4.00;;;3.53;;
1366;SDS011;16877;48.810;9.282;2023-06-10T14:16:48;3.30;;;3.00;;
1366;SDS011;16877;48.810;9.282;2023-06-10T14:19:15;3.30;;;3.00;;
1366;SDS011;16877;48.810;9.282;2023-06-10T14:21:42;3.83;;;3.42;;
1366;SDS011;16877;48.810;9.282;2023-06-10T14:24:09;7.25;;;3.00;;
1366;SDS011;16877;48.810;9.282;2023-06-10T14:26:40;8.15;;;3.20;;
1366;SDS011;16877;48.810;9.282;2023-06-10T14:29:07;3.95;;;3.00;;
1366;SDS011;16877;48.810;9.282;2023-06-10T14:31:35;4.70;;;3.60;;
1366;SDS011;16877;48.810;9.282;2023-06-10T14:34:02;4.07;;;3.67;;
1366;SDS011;16877;48.810;9.282;2023-06-10T14:36:31;3.85;;;3.55;;
1366;SDS011;16877;48.810;9.282;2023-06-10T14:38:58;4.35;;;3.72;;
1366;SDS011;16877;48.810;9.282;2023-06-10T14:41:25;3.88;;;3.47;;
1366;SDS011;16877;48.810;9.282;2023-06-10T14:43:54;4.00;;;3.60;;
1366;SDS011;16877;48.810;9.282;2023-06-10T14:46:22;3.58;;;3.28;;
1366;SDS011;16877;48.810;9.282;2023-06-10T14:48:49;3.95;;;3.58;;
1366;SDS011;16877;48.810;9.282;2023-06-10T14:51:16;3.60;;;3.22;;
1366;SDS011;16877;48.810;9.282;2023-06-10T14:53:45;3.60;;;3.30;;
1366;SDS011;16877;48.810;9.282;2023-06-10T14:56:13;3.88;;;3.58;;
1366;SDS011;16877;48.810;9.282;2023-06-10T14:58:56;3.90;;;3.50;;
1366;SDS011;16877;48.810;9.282;2023-06-10T15:01:24;5.18;;;4.05;;
1366;SDS011;16877;48.810;9.282;2023-06-10T15:03:54;4.05;;;3.65;;
1366;SDS011;16877;48.810;9.282;2023-06-10T15:06:22;4.15;;;3.75;;
1366;SDS011;16877;48.810;9.282;2023-06-10T15:08:50;4.07;;;3.67;;
1366;SDS011;16877;48.810;9.282;2023-06-10T15:11:18;3.65;;;3.30;;
1366;SDS011;16877;48.810;9.282;2023-06-10T15:13:46;3.60;;;3.30;;
1366;SDS011;16877;48.810;9.282;2023-06-10T15:16:15;4.57;;;3.60;;